createdAt,value
2023-03-29T00:01:10.333Z,-0.30
2023-03-29T00:03:40.413Z,-0.36
2023-03-29T00:06:09.911Z,-0.39
2023-03-29T00:08:39.062Z,-0.45
2023-03-29T00:11:07.846Z,-0.45
2023-03-29T00:13:36.713Z,-0.43
2023-03-29T00:16:05.949Z,-0.46
2023-03-29T00:18:34.702Z,-0.50
2023-03-29T00:21:03.848Z,-0.52
2023-03-29T00:23:32.764Z,-0.58
2023-03-29T00:26:01.879Z,-0.59
2023-03-29T00:28:31.478Z,-0.62
2023-03-29T00:31:14.017Z,-0.62
2023-03-29T00:33:43.556Z,-0.68
2023-03-29T00:36:13.033Z,-0.71
2023-03-29T00:38:42.267Z,-0.77
2023-03-29T00:41:12.008Z,-0.84
2023-03-29T00:44:00.192Z,-0.90
2023-03-29T00:46:30.708Z,-0.93
2023-03-29T00:49:09.884Z,-0.95
2023-03-29T00:51:41.680Z,-0.98
2023-03-29T00:54:18.799Z,-1.06
2023-03-29T00:56:51.413Z,-1.01
2023-03-29T00:59:28.360Z,-1.03
2023-03-29T01:02:04.040Z,-1.06
2023-03-29T01:04:43.928Z,-1.07
2023-03-29T01:07:23.380Z,-1.06
2023-03-29T01:10:09.403Z,-1.02
2023-03-29T01:12:45.667Z,-0.97
2023-03-29T01:15:27.413Z,-0.97
2023-03-29T01:17:58.498Z,-0.97
2023-03-29T01:20:44.031Z,-0.97
2023-03-29T01:23:54.564Z,-0.98
2023-03-29T01:27:15.823Z,-1.00
2023-03-29T01:29:51.285Z,-1.01
2023-03-29T01:32:37.882Z,-1.01
2023-03-29T01:35:22.272Z,-1.05
2023-03-29T01:38:05.537Z,-1.08
2023-03-29T01:40:34.591Z,-1.13
2023-03-29T01:43:20.666Z,-1.18
2023-03-29T01:46:05.191Z,-1.20
2023-03-29T01:48:42.419Z,-1.22
2023-03-29T01:51:32.284Z,-1.22
2023-03-29T01:54:12.036Z,-1.23
2023-03-29T01:56:43.811Z,-1.22
2023-03-29T01:59:18.838Z,-1.21
2023-03-29T02:01:55.018Z,-1.23
2023-03-29T02:04:31.945Z,-1.24
2023-03-29T02:07:03.282Z,-1.22
2023-03-29T02:09:33.884Z,-1.20
2023-03-29T02:12:06.760Z,-1.18
2023-03-29T02:14:35.732Z,-1.22
2023-03-29T02:17:21.212Z,-1.23
2023-03-29T02:20:17.717Z,-1.23
2023-03-29T02:23:29.176Z,-1.23
2023-03-29T02:25:58.465Z,-1.27
2023-03-29T02:28:28.735Z,-1.30
2023-03-29T02:31:25.041Z,-1.33
2023-03-29T02:34:05.397Z,-1.40
2023-03-29T02:36:44.835Z,-1.44
2023-03-29T02:39:15.818Z,-1.50
2023-03-29T02:41:50.058Z,-1.54
2023-03-29T02:44:26.942Z,-1.54
2023-03-29T02:47:06.764Z,-1.55
2023-03-29T02:49:35.651Z,-1.56
2023-03-29T02:52:12.839Z,-1.54
2023-03-29T02:54:45.479Z,-1.52
2023-03-29T02:57:14.448Z,-1.48
2023-03-29T02:59:44.814Z,-1.45
2023-03-29T03:02:14.352Z,-1.41
2023-03-29T03:04:43.437Z,-1.38
2023-03-29T03:07:12.145Z,-1.32
2023-03-29T03:09:41.380Z,-1.27
2023-03-29T03:12:10.867Z,-1.25
2023-03-29T03:14:39.725Z,-1.25
2023-03-29T03:17:08.502Z,-1.23
2023-03-29T03:19:37.411Z,-1.16
2023-03-29T03:22:07.832Z,-1.12
2023-03-29T03:24:36.625Z,-1.11
2023-03-29T03:27:05.428Z,-1.03
2023-03-29T03:29:35.536Z,-0.96
2023-03-29T03:32:26.493Z,-0.97
2023-03-29T03:35:13.728Z,-1.02
2023-03-29T03:37:43.145Z,-1.04
2023-03-29T03:40:13.822Z,-1.09
2023-03-29T03:42:42.646Z,-1.15
2023-03-29T03:45:12.347Z,-1.16
2023-03-29T03:47:43.704Z,-1.22
2023-03-29T03:50:21.972Z,-1.25
2023-03-29T03:52:50.978Z,-1.24
2023-03-29T03:55:22.161Z,-1.24
2023-03-29T03:57:53.974Z,-1.28
2023-03-29T04:00:23.639Z,-1.33
2023-03-29T04:03:21.925Z,-1.39
2023-03-29T04:05:51.936Z,-1.43
2023-03-29T04:08:22.660Z,-1.50
2023-03-29T04:11:10.627Z,-1.51
2023-03-29T04:13:40.971Z,-1.53
2023-03-29T04:16:28.732Z,-1.52
2023-03-29T04:19:00.419Z,-1.55
2023-03-29T04:21:29.552Z,-1.60
2023-03-29T04:23:58.340Z,-1.65
2023-03-29T04:26:27.360Z,-1.64
2023-03-29T04:29:07.291Z,-1.63
2023-03-29T04:31:44.031Z,-1.63
2023-03-29T04:34:53.476Z,-1.68
2023-03-29T04:37:22.519Z,-1.64
2023-03-29T04:39:52.727Z,-1.62
2023-03-29T04:42:21.538Z,-1.60
2023-03-29T04:44:50.310Z,-1.57
2023-03-29T04:47:23.784Z,-1.56
2023-03-29T04:49:57.355Z,-1.53
2023-03-29T04:52:33.536Z,-1.51
2023-03-29T04:55:05.910Z,-1.46
2023-03-29T04:57:49.961Z,-1.43
2023-03-29T05:00:31.800Z,-1.38
2023-03-29T05:03:27.308Z,-1.32
2023-03-29T05:06:09.119Z,-1.27
2023-03-29T05:08:40.735Z,-1.23
2023-03-29T05:11:15.491Z,-1.15
2023-03-29T05:13:44.436Z,-1.10
2023-03-29T05:16:13.346Z,-1.01
2023-03-29T05:18:42.218Z,-0.97
2023-03-29T05:21:11.654Z,-0.82
2023-03-29T05:23:41.102Z,-0.73
2023-03-29T05:26:10.100Z,-0.69
2023-03-29T05:28:39.682Z,-0.62
2023-03-29T05:31:09.312Z,-0.55
2023-03-29T05:33:41.128Z,-0.49
2023-03-29T05:36:16.862Z,-0.45
2023-03-29T05:38:47.842Z,-0.42
2023-03-29T05:41:18.073Z,-0.34
2023-03-29T05:43:46.890Z,-0.25
2023-03-29T05:46:15.728Z,-0.20
2023-03-29T05:48:49.685Z,-0.11
2023-03-29T05:51:24.407Z,-0.08
2023-03-29T05:53:56.048Z,-0.01
2023-03-29T05:56:25.014Z,0.05
2023-03-29T05:58:57.186Z,0.05
2023-03-29T06:01:26.062Z,0.06
2023-03-29T06:04:01.913Z,0.13
2023-03-29T06:06:36.413Z,0.24
2023-03-29T06:09:05.883Z,0.27
2023-03-29T06:11:46.768Z,0.33
2023-03-29T06:14:30.263Z,0.32
2023-03-29T06:17:48.632Z,0.37
2023-03-29T06:20:18.570Z,0.38
2023-03-29T06:22:52.728Z,0.42
2023-03-29T06:25:21.610Z,0.44
2023-03-29T06:27:52.395Z,0.47
2023-03-29T06:30:21.703Z,0.50
2023-03-29T06:32:53.003Z,0.54
2023-03-29T06:35:41.042Z,0.58
2023-03-29T06:38:11.360Z,0.64
2023-03-29T06:41:13.074Z,0.74
2023-03-29T06:44:34.481Z,0.72
2023-03-29T06:47:08.389Z,0.79
2023-03-29T06:49:38.130Z,0.86
2023-03-29T06:52:27.824Z,0.93
2023-03-29T06:54:56.728Z,0.93
2023-03-29T06:57:25.992Z,1.03
2023-03-29T06:59:55.198Z,1.14
2023-03-29T07:02:27.520Z,1.20
2023-03-29T07:04:59.325Z,1.30
2023-03-29T07:07:54.200Z,1.46
2023-03-29T07:10:53.531Z,1.57
2023-03-29T07:13:27.823Z,1.36
2023-03-29T07:15:56.982Z,1.36
2023-03-29T07:18:35.241Z,1.43
2023-03-29T07:21:05.157Z,1.55
2023-03-29T07:23:34.372Z,1.56
2023-03-29T07:26:03.878Z,1.52
2023-03-29T07:28:32.619Z,1.42
2023-03-29T07:31:11.261Z,1.64
2023-03-29T07:33:46.633Z,1.67
2023-03-29T07:36:15.910Z,1.63
2023-03-29T07:38:44.954Z,1.80
2023-03-29T07:41:18.368Z,1.94
2023-03-29T07:43:52.683Z,1.96
2023-03-29T07:46:25.390Z,2.24
2023-03-29T07:48:56.888Z,2.24
2023-03-29T07:51:26.006Z,2.12
2023-03-29T07:54:01.354Z,2.03
2023-03-29T07:56:53.982Z,1.88
2023-03-29T07:59:36.790Z,1.77
2023-03-29T08:02:21.320Z,1.46
2023-03-29T08:04:54.931Z,1.61
2023-03-29T08:07:57.319Z,1.90
2023-03-29T08:10:47.093Z,1.85
2023-03-29T08:14:05.374Z,2.01
2023-03-29T08:17:14.815Z,1.94
2023-03-29T08:19:50.978Z,1.99
2023-03-29T08:22:23.786Z,1.88
2023-03-29T08:25:39.018Z,1.97
2023-03-29T08:28:08.084Z,1.90
2023-03-29T08:30:45.812Z,1.76
2023-03-29T08:33:14.748Z,1.75
2023-03-29T08:35:43.846Z,2.03
2023-03-29T08:38:22.082Z,2.10
2023-03-29T08:40:51.388Z,2.01
2023-03-29T08:43:59.598Z,1.99
2023-03-29T08:47:50.975Z,2.00
2023-03-29T08:50:25.794Z,2.23
2023-03-29T08:53:04.858Z,2.58
2023-03-29T08:56:26.729Z,2.73
2023-03-29T08:58:57.713Z,2.66
2023-03-29T09:01:35.061Z,2.42
2023-03-29T09:04:24.034Z,2.26
2023-03-29T09:07:45.578Z,1.83
2023-03-29T09:10:20.773Z,1.83
2023-03-29T09:13:11.444Z,1.94
2023-03-29T09:16:03.782Z,2.01
2023-03-29T09:18:56.664Z,2.07
2023-03-29T09:21:49.649Z,2.18
2023-03-29T09:24:44.765Z,2.36
2023-03-29T09:27:28.423Z,2.49
2023-03-29T09:30:17.186Z,2.53
2023-03-29T09:33:25.123Z,2.53
2023-03-29T09:36:36.566Z,2.55
2023-03-29T09:39:06.150Z,2.55
2023-03-29T09:41:49.199Z,2.56
2023-03-29T09:44:31.282Z,2.73
2023-03-29T09:47:20.231Z,2.90
2023-03-29T09:49:55.433Z,2.93
2023-03-29T09:52:24.378Z,2.57
2023-03-29T09:55:05.345Z,2.11
2023-03-29T09:58:28.068Z,1.82
2023-03-29T10:01:05.985Z,1.57
2023-03-29T10:03:37.221Z,1.60
2023-03-29T10:06:12.722Z,1.63
2023-03-29T10:09:02.812Z,1.80
2023-03-29T10:11:38.489Z,1.92
2023-03-29T10:14:18.930Z,1.96
2023-03-29T10:16:54.815Z,1.89
2023-03-29T10:19:35.180Z,2.03
2023-03-29T10:22:25.224Z,2.08
2023-03-29T10:24:57.387Z,2.05
2023-03-29T10:27:32.374Z,1.95
2023-03-29T10:30:09.498Z,1.72
2023-03-29T10:32:39.334Z,1.69
2023-03-29T10:35:34.968Z,1.70
2023-03-29T10:38:10.561Z,1.95
2023-03-29T10:41:23.217Z,1.97
2023-03-29T10:43:52.338Z,2.16
2023-03-29T10:46:36.357Z,2.34
2023-03-29T10:49:10.401Z,2.25
2023-03-29T10:51:45.338Z,2.38
2023-03-29T10:54:16.164Z,2.16
2023-03-29T10:56:52.447Z,2.07
2023-03-29T10:59:39.626Z,1.90
2023-03-29T11:02:14.643Z,1.67
2023-03-29T11:05:17.924Z,1.40
2023-03-29T11:08:31.850Z,1.33
2023-03-29T11:11:35.198Z,1.40
2023-03-29T11:14:29.153Z,1.32
2023-03-29T11:17:08.891Z,1.49
2023-03-29T11:19:47.490Z,1.53
2023-03-29T11:22:53.363Z,1.44
2023-03-29T11:26:02.802Z,1.61
2023-03-29T11:29:02.846Z,1.75
2023-03-29T11:31:53.122Z,1.74
2023-03-29T11:34:42.975Z,1.76
2023-03-29T11:37:23.318Z,1.59
2023-03-29T11:40:05.807Z,1.18
2023-03-29T11:42:39.477Z,1.07
2023-03-29T11:45:18.999Z,0.89
2023-03-29T11:47:49.499Z,0.94
2023-03-29T11:50:36.053Z,1.05
2023-03-29T11:53:26.426Z,1.26
2023-03-29T11:55:57.821Z,1.50
2023-03-29T11:58:39.091Z,1.66
2023-03-29T12:01:15.054Z,1.72
2023-03-29T12:03:54.189Z,1.88
2023-03-29T12:06:34.827Z,2.01
2023-03-29T12:09:24.457Z,2.07
2023-03-29T12:12:06.063Z,2.15
2023-03-29T12:15:20.570Z,2.16
2023-03-29T12:18:35.276Z,1.97
2023-03-29T12:21:11.075Z,2.02
2023-03-29T12:23:43.718Z,2.06
2023-03-29T12:26:20.694Z,1.92
2023-03-29T12:29:18.590Z,2.08
2023-03-29T12:32:21.702Z,2.10
2023-03-29T12:35:37.920Z,2.14
2023-03-29T12:38:30.549Z,2.36
2023-03-29T12:41:21.925Z,2.54
2023-03-29T12:44:15.580Z,3.12
2023-03-29T12:46:58.761Z,3.65
2023-03-29T12:49:34.446Z,4.04
2023-03-29T12:52:17.799Z,4.06
2023-03-29T12:54:59.369Z,3.84
2023-03-29T12:57:42.458Z,3.52
2023-03-29T13:00:22.676Z,3.49
2023-03-29T13:03:28.460Z,3.29
2023-03-29T13:06:05.333Z,3.06
2023-03-29T13:08:43.857Z,2.91
2023-03-29T13:11:27.824Z,3.11
2023-03-29T13:13:57.476Z,2.95
2023-03-29T13:16:35.214Z,2.89
2023-03-29T13:19:10.142Z,3.22
2023-03-29T13:21:49.515Z,3.72
2023-03-29T13:24:35.155Z,3.66
2023-03-29T13:27:35.126Z,3.71
2023-03-29T13:30:13.099Z,3.91
2023-03-29T13:33:24.981Z,4.34
2023-03-29T13:35:59.700Z,3.80
2023-03-29T13:38:32.062Z,3.58
2023-03-29T13:41:07.540Z,3.55
2023-03-29T13:43:56.068Z,3.26
2023-03-29T13:46:38.566Z,3.15
2023-03-29T13:49:19.872Z,3.06
2023-03-29T13:52:19.776Z,2.90
2023-03-29T13:55:02.214Z,2.95
2023-03-29T13:57:54.666Z,2.83
2023-03-29T14:00:37.016Z,3.74
2023-03-29T14:03:14.738Z,3.69
2023-03-29T14:05:50.982Z,3.36
2023-03-29T14:08:35.804Z,3.19
2023-03-29T14:11:08.517Z,3.00
2023-03-29T14:13:37.312Z,2.92
2023-03-29T14:16:11.665Z,2.85
2023-03-29T14:18:42.563Z,2.86
2023-03-29T14:21:15.795Z,3.31
2023-03-29T14:23:47.051Z,4.40
2023-03-29T14:26:21.646Z,4.41
2023-03-29T14:29:01.347Z,4.14
2023-03-29T14:31:36.545Z,3.75
2023-03-29T14:34:11.681Z,3.60
2023-03-29T14:36:41.649Z,3.32
2023-03-29T14:39:23.058Z,3.37
2023-03-29T14:41:59.639Z,3.36
2023-03-29T14:44:34.787Z,3.31
2023-03-29T14:47:03.897Z,3.32
2023-03-29T14:49:33.305Z,3.23
2023-03-29T14:52:02.452Z,3.16
2023-03-29T14:54:34.413Z,3.03
2023-03-29T14:57:09.387Z,2.91
2023-03-29T14:59:44.186Z,2.89
2023-03-29T15:03:01.896Z,2.92
2023-03-29T15:05:33.394Z,2.79
2023-03-29T15:08:03.638Z,2.82
2023-03-29T15:10:35.707Z,2.79
2023-03-29T15:13:07.560Z,2.91
2023-03-29T15:15:39.158Z,2.99
2023-03-29T15:18:13.067Z,2.94
2023-03-29T15:20:42.755Z,3.06
2023-03-29T15:23:17.393Z,3.07
2023-03-29T15:26:21.851Z,3.12
2023-03-29T15:28:57.670Z,3.24
2023-03-29T15:31:34.923Z,3.25
2023-03-29T15:34:11.376Z,3.30
2023-03-29T15:36:45.748Z,3.17
2023-03-29T15:39:17.355Z,2.97
2023-03-29T15:41:49.539Z,2.94
2023-03-29T15:44:26.558Z,3.33
2023-03-29T15:46:57.974Z,3.85
2023-03-29T15:49:27.360Z,4.22
2023-03-29T15:51:56.101Z,4.56
2023-03-29T15:54:24.986Z,4.55
2023-03-29T15:57:12.852Z,4.72
2023-03-29T15:59:43.223Z,4.73
2023-03-29T16:02:16.817Z,4.56
2023-03-29T16:04:45.645Z,4.62
2023-03-29T16:07:17.179Z,4.66
2023-03-29T16:09:49.011Z,4.55
2023-03-29T16:12:17.759Z,4.74
2023-03-29T16:14:46.594Z,4.36
2023-03-29T16:17:16.099Z,3.99
2023-03-29T16:19:44.856Z,3.76
2023-03-29T16:22:13.575Z,3.42
2023-03-29T16:24:43.859Z,3.38
2023-03-29T16:27:12.673Z,3.34
2023-03-29T16:29:41.351Z,3.18
2023-03-29T16:32:11.272Z,3.17
2023-03-29T16:37:10.101Z,2.79
2023-03-29T16:39:39.008Z,2.71
2023-03-29T16:42:12.260Z,2.65
2023-03-29T16:44:41.086Z,2.58
2023-03-29T16:47:12.388Z,2.43
2023-03-29T16:49:41.932Z,2.29
2023-03-29T16:52:12.473Z,2.22
2023-03-29T16:54:42.447Z,2.14
2023-03-29T16:57:11.286Z,2.11
2023-03-29T16:59:41.930Z,2.17
2023-03-29T17:02:10.828Z,2.08
2023-03-29T17:04:39.618Z,2.22
2023-03-29T17:07:08.520Z,2.32
2023-03-29T17:09:37.179Z,2.14
2023-03-29T17:12:06.113Z,2.05
2023-03-29T17:14:34.981Z,2.00
2023-03-29T17:17:04.256Z,2.03
2023-03-29T17:19:33.132Z,2.07
2023-03-29T17:22:02.269Z,2.02
2023-03-29T17:24:31.135Z,2.05
2023-03-29T17:27:00.145Z,2.20
2023-03-29T17:29:28.889Z,2.29
2023-03-29T17:31:57.583Z,2.40
2023-03-29T17:34:29.080Z,2.53
2023-03-29T17:36:57.717Z,2.51
2023-03-29T17:39:27.307Z,2.51
2023-03-29T17:41:56.910Z,2.52
2023-03-29T17:44:25.667Z,2.61
2023-03-29T17:46:54.454Z,2.61
2023-03-29T17:49:23.158Z,2.63
2023-03-29T17:51:52.194Z,2.65
2023-03-29T17:54:21.083Z,2.70
2023-03-29T17:56:50.592Z,2.74
2023-03-29T17:59:19.468Z,2.72
2023-03-29T18:01:48.158Z,2.71
2023-03-29T18:04:16.884Z,2.72
2023-03-29T18:06:46.028Z,2.72
2023-03-29T18:09:14.717Z,2.61
2023-03-29T18:11:43.676Z,2.56
2023-03-29T18:14:12.416Z,2.61
2023-03-29T18:16:41.844Z,2.62
2023-03-29T18:19:10.986Z,2.65
2023-03-29T18:21:40.005Z,2.61
2023-03-29T18:24:08.734Z,2.58
2023-03-29T18:26:37.485Z,2.53
2023-03-29T18:29:07.382Z,2.53
2023-03-29T18:31:38.090Z,2.61
2023-03-29T18:34:06.921Z,2.60
2023-03-29T18:36:35.725Z,2.54
2023-03-29T18:39:07.475Z,2.64
2023-03-29T18:41:37.448Z,2.48
2023-03-29T18:44:07.912Z,2.38
2023-03-29T18:46:36.916Z,2.32
2023-03-29T18:49:07.892Z,2.29
2023-03-29T18:51:36.725Z,2.27
2023-03-29T18:54:06.204Z,2.30
2023-03-29T18:56:36.046Z,2.36
2023-03-29T18:59:06.576Z,2.40
2023-03-29T19:01:35.490Z,2.40
2023-03-29T19:04:04.570Z,2.47
2023-03-29T19:06:33.993Z,2.52
2023-03-29T19:09:05.219Z,2.61
2023-03-29T19:11:36.155Z,2.78
2023-03-29T19:14:08.470Z,2.82
2023-03-29T19:16:37.161Z,2.76
2023-03-29T19:19:08.706Z,2.61
2023-03-29T19:21:38.641Z,2.56
2023-03-29T19:24:07.996Z,2.47
2023-03-29T19:26:36.741Z,2.29
2023-03-29T19:29:05.765Z,2.19
2023-03-29T19:31:37.918Z,2.11
2023-03-29T19:34:07.162Z,2.01
2023-03-29T19:36:35.967Z,1.87
2023-03-29T19:39:06.215Z,1.90
2023-03-29T19:41:35.006Z,1.94
2023-03-29T19:44:05.436Z,1.91
2023-03-29T19:46:34.143Z,1.84
2023-03-29T19:49:05.159Z,1.76
2023-03-29T19:51:34.581Z,1.66
2023-03-29T19:54:03.310Z,1.55
2023-03-29T19:56:33.257Z,1.52
2023-03-29T19:59:01.995Z,1.48
2023-03-29T20:01:32.555Z,1.46
2023-03-29T20:04:02.649Z,1.43
2023-03-29T20:06:31.517Z,1.42
2023-03-29T20:09:00.346Z,1.34
2023-03-29T20:11:29.119Z,1.27
2023-03-29T20:13:57.868Z,1.23
2023-03-29T20:16:27.223Z,1.33
2023-03-29T20:18:56.447Z,1.34
2023-03-29T20:21:25.254Z,1.29
2023-03-29T20:23:53.982Z,1.22
2023-03-29T20:26:23.685Z,1.26
2023-03-29T20:28:52.580Z,1.30
2023-03-29T20:31:21.389Z,1.28
2023-03-29T20:33:50.459Z,1.35
2023-03-29T20:36:23.159Z,1.33
2023-03-29T20:38:52.697Z,1.32
2023-03-29T20:41:21.342Z,1.38
2023-03-29T20:43:58.638Z,1.42
2023-03-29T20:46:35.294Z,1.35
2023-03-29T20:49:09.008Z,1.32
2023-03-29T20:51:39.620Z,1.37
2023-03-29T20:54:10.226Z,1.56
2023-03-29T20:56:42.559Z,1.57
2023-03-29T20:59:11.366Z,1.64
2023-03-29T21:01:41.143Z,1.81
2023-03-29T21:04:11.123Z,1.86
2023-03-29T21:06:41.660Z,1.80
2023-03-29T21:09:10.392Z,1.76
2023-03-29T21:11:39.402Z,1.66
2023-03-29T21:14:09.489Z,1.54
2023-03-29T21:16:42.027Z,1.41
2023-03-29T21:19:11.073Z,1.35
2023-03-29T21:21:41.584Z,1.28
2023-03-29T21:24:13.525Z,1.24
2023-03-29T21:26:42.311Z,1.23
2023-03-29T21:29:11.568Z,1.19
2023-03-29T21:31:40.901Z,1.13
2023-03-29T21:34:09.708Z,1.01
2023-03-29T21:36:39.965Z,0.99
2023-03-29T21:39:08.839Z,0.93
2023-03-29T21:41:37.587Z,0.89
2023-03-29T21:44:06.452Z,0.87
2023-03-29T21:46:35.478Z,0.85
2023-03-29T21:49:04.394Z,0.79
2023-03-29T21:51:33.101Z,0.71
2023-03-29T21:54:01.823Z,0.73
2023-03-29T21:56:30.507Z,0.72
2023-03-29T21:58:59.172Z,0.71
2023-03-29T22:01:28.219Z,0.61
2023-03-29T22:03:57.082Z,0.68
2023-03-29T22:06:25.825Z,0.67
2023-03-29T22:08:54.722Z,0.65
2023-03-29T22:11:23.536Z,0.65
2023-03-29T22:13:52.788Z,0.63
2023-03-29T22:16:22.364Z,0.58
2023-03-29T22:18:52.586Z,0.59
2023-03-29T22:21:25.107Z,0.57
2023-03-29T22:23:56.877Z,0.54
2023-03-29T22:26:29.896Z,0.51
2023-03-29T22:29:00.614Z,0.45
2023-03-29T22:31:30.310Z,0.37
2023-03-29T22:34:00.013Z,0.33
2023-03-29T22:36:31.311Z,0.31
2023-03-29T22:38:59.977Z,0.33
2023-03-29T22:41:28.938Z,0.30
2023-03-29T22:44:01.234Z,0.24
2023-03-29T22:46:30.174Z,0.17
2023-03-29T22:48:59.041Z,0.14
2023-03-29T22:51:27.747Z,0.11
2023-03-29T22:53:56.474Z,0.05
2023-03-29T22:56:25.682Z,0.01
2023-03-29T22:58:54.411Z,-0.06
2023-03-29T23:01:23.225Z,-0.13
2023-03-29T23:03:51.975Z,-0.19
2023-03-29T23:06:20.702Z,-0.24
2023-03-29T23:08:49.368Z,-0.29
2023-03-29T23:11:18.219Z,-0.33
2023-03-29T23:13:49.036Z,-0.34
2023-03-29T23:16:20.947Z,-0.35
2023-03-29T23:18:49.840Z,-0.31
2023-03-29T23:21:18.619Z,-0.27
2023-03-29T23:23:47.280Z,-0.18
2023-03-29T23:26:16.203Z,0.16
2023-03-29T23:28:45.006Z,0.17
2023-03-29T23:31:18.571Z,0.25
2023-03-29T23:33:47.490Z,0.24
2023-03-29T23:36:18.594Z,0.21
2023-03-29T23:38:47.991Z,0.22
2023-03-29T23:41:17.927Z,0.17
2023-03-29T23:43:47.591Z,0.15
2023-03-29T23:46:19.064Z,0.20
2023-03-29T23:48:50.289Z,0.24
2023-03-29T23:51:23.418Z,0.14
2023-03-29T23:53:52.696Z,0.13
2023-03-29T23:56:21.808Z,0.10
2023-03-29T23:58:51.153Z,0.09
